Acton, Texas
Current Conditions -  °F | °C
As of 1:15 AM on Saturday 25 Oct 2014 (Local Time) from KGDJ Reporting Station
Clear Clear  
Wind Chill: 70°   Ceiling: Unl
Heat Index: 70°   Visibility: 10mi
Dew Point: 60°   Wind: 0mph
Humidity: 72%   Direction: NA
Pressure: 30.11"   Gusts: NA
Location:  32.4693°N, 97.7085°W
Report Text: KGDJ 250615Z AUTO 00000KT 10SM CLR 21/16 A3011 RMK AO2 T02100157
Loading
Personal Weather Stations






























Interactive Weather Map
Tropical Storm Tracking
New forecast layout! Learn more

10-Day Weather Forecast

Advertisements
Track Severe Weather on mobile